Time,TemperatureF,DewpointF,PressureIn,WindDirection,WindDirectionDegrees,WindSpeedMPH,WindSpeedGustMPH,Humidity,HourlyPrecipIn,Conditions,Clouds,dailyrainin,SoftwareType,DateUTC
2013-08-02 00:03:00,67.4,66.0,29.86,SW,215,0.0,0.0,95,0.02,,,0.08,weatherlink.com 1.10,2013-08-02 04:03:00,
2013-08-02 00:18:00,67.3,66.0,29.85,SW,215,0.0,1.0,95,0.02,,,0.08,weatherlink.com 1.10,2013-08-02 04:18:00,
2013-08-02 00:33:00,67.3,66.0,29.85,WNW,283,1.0,1.0,95,0.01,,,0.08,weatherlink.com 1.10,2013-08-02 04:33:00,
2013-08-02 00:48:00,67.2,66.0,29.85,West,263,0.0,1.0,94,0.01,,,0.08,weatherlink.com 1.10,2013-08-02 04:48:00,
2013-08-02 01:03:00,67.1,65.0,29.84,West,263,0.0,1.0,93,0.00,,,0.08,weatherlink.com 1.10,2013-08-02 05:03:00,
2013-08-02 01:18:00,67.9,66.0,29.83,East,83,2.0,3.0,94,0.00,,,0.08,weatherlink.com 1.10,2013-08-02 05:18:00,
2013-08-02 01:33:00,68.6,66.0,29.82,East,86,2.0,3.0,90,0.00,,,0.08,weatherlink.com 1.10,2013-08-02 05:33:00,
2013-08-02 01:48:00,68.7,66.0,29.81,ESE,118,4.0,5.0,91,0.00,,,0.08,weatherlink.com 1.10,2013-08-02 05:48:00,
2013-08-02 02:03:00,67.8,66.0,29.81,South,188,3.0,5.0,92,0.00,,,0.08,weatherlink.com 1.10,2013-08-02 06:03:00,
2013-08-02 02:18:00,68.5,67.0,29.79,SE,139,4.0,7.0,94,0.00,,,0.08,weatherlink.com 1.10,2013-08-02 06:18:00,
2013-08-02 02:33:00,-999.0,-99.9,29.78,North,-999,-999.0,-999.0,-999,0.00,,,0.08,weatherlink.com 1.10,2013-08-02 06:33:00,
2013-08-02 02:48:00,-999.0,-99.9,29.78,North,-999,-999.0,-999.0,-999,0.00,,,0.08,weatherlink.com 1.10,2013-08-02 06:48:00,
2013-08-02 03:03:00,-999.0,-99.9,29.77,North,-999,-999.0,-999.0,-999,0.00,,,0.08,weatherlink.com 1.10,2013-08-02 07:03:00,
2013-08-02 03:18:00,-999.0,-99.9,29.76,North,-999,-999.0,-999.0,-999,0.00,,,0.08,weatherlink.com 1.10,2013-08-02 07:18:00,
2013-08-02 03:33:00,-999.0,-99.9,29.77,North,-999,-999.0,-999.0,-999,0.00,,,0.08,weatherlink.com 1.10,2013-08-02 07:33:00,
2013-08-02 03:48:00,-999.0,-99.9,29.77,North,-999,-999.0,-999.0,-999,0.00,,,0.08,weatherlink.com 1.10,2013-08-02 07:48:00,
2013-08-02 04:03:00,-999.0,-99.9,29.77,North,-999,-999.0,-999.0,-999,0.00,,,0.08,weatherlink.com 1.10,2013-08-02 08:03:00,
2013-08-02 04:18:00,-999.0,-99.9,29.77,North,-999,-999.0,-999.0,-999,0.00,,,0.08,weatherlink.com 1.10,2013-08-02 08:18:00,
2013-08-02 04:33:00,-999.0,-99.9,29.77,North,-999,-999.0,-999.0,-999,0.00,,,0.08,weatherlink.com 1.10,2013-08-02 08:33:00,
2013-08-02 04:48:00,-999.0,-99.9,29.77,North,-999,-999.0,-999.0,-999,0.00,,,0.08,weatherlink.com 1.10,2013-08-02 08:48:00,
2013-08-02 05:04:00,-999.0,-99.9,29.78,North,-999,-999.0,-999.0,-999,0.00,,,0.08,weatherlink.com 1.10,2013-08-02 09:04:00,
2013-08-02 05:19:00,-999.0,-99.9,29.77,North,-999,-999.0,-999.0,-999,0.00,,,0.08,weatherlink.com 1.10,2013-08-02 09:19:00,
2013-08-02 05:34:00,-999.0,-99.9,29.78,North,-999,-999.0,-999.0,-999,0.00,,,0.08,weatherlink.com 1.10,2013-08-02 09:34:00,
2013-08-02 05:49:00,-999.0,-99.9,29.78,North,-999,-999.0,-999.0,-999,0.00,,,0.08,weatherlink.com 1.10,2013-08-02 09:49:00,
2013-08-02 06:04:00,-999.0,-99.9,29.78,North,-999,-999.0,-999.0,-999,0.00,,,0.08,weatherlink.com 1.10,2013-08-02 10:04:00,
2013-08-02 06:19:00,-999.0,-99.9,29.77,North,-999,-999.0,-999.0,-999,0.00,,,0.08,weatherlink.com 1.10,2013-08-02 10:19:00,
2013-08-02 06:34:00,-999.0,-99.9,29.77,North,-999,-999.0,-999.0,-999,0.00,,,0.08,weatherlink.com 1.10,2013-08-02 10:34:00,
2013-08-02 06:49:00,-999.0,-99.9,29.77,North,-999,-999.0,-999.0,-999,0.00,,,0.08,weatherlink.com 1.10,2013-08-02 10:49:00,
2013-08-02 07:04:00,-999.0,-99.9,29.77,North,-999,-999.0,-999.0,-999,0.00,,,0.08,weatherlink.com 1.10,2013-08-02 11:04:00,
2013-08-02 07:19:00,-999.0,-99.9,29.77,North,-999,-999.0,-999.0,-999,0.00,,,0.08,weatherlink.com 1.10,2013-08-02 11:19:00,
2013-08-02 07:34:00,68.1,67.0,29.78,SSE,167,1.0,10.0,96,0.00,,,0.08,weatherlink.com 1.10,2013-08-02 11:34:00,
2013-08-02 07:49:00,68.6,68.0,29.78,SE,136,3.0,6.0,96,0.00,,,0.08,weatherlink.com 1.10,2013-08-02 11:49:00,
2013-08-02 08:04:00,68.8,67.0,29.78,SSE,167,7.0,8.0,95,0.00,,,0.08,weatherlink.com 1.10,2013-08-02 12:04:00,
2013-08-02 08:19:00,68.6,67.0,29.79,SE,146,6.0,7.0,95,0.00,,,0.08,weatherlink.com 1.10,2013-08-02 12:19:00,
2013-08-02 08:34:00,68.5,67.0,29.79,SSE,165,2.0,8.0,95,0.00,,,0.08,weatherlink.com 1.10,2013-08-02 12:34:00,
2013-08-02 08:49:00,68.6,68.0,29.78,SSE,147,2.0,8.0,96,0.03,,,0.11,weatherlink.com 1.10,2013-08-02 12:49:00,
2013-08-02 09:04:00,68.5,67.0,29.78,SSE,153,3.0,5.0,96,0.13,,,0.21,weatherlink.com 1.10,2013-08-02 13:04:00,
2013-08-02 09:19:00,68.3,67.0,29.78,SE,145,2.0,6.0,96,0.14,,,0.22,weatherlink.com 1.10,2013-08-02 13:19:00,
2013-08-02 09:34:00,68.2,67.0,29.79,South,179,3.0,9.0,96,0.18,,,0.26,weatherlink.com 1.10,2013-08-02 13:34:00,
2013-08-02 09:49:00,68.1,67.0,29.79,SE,145,1.0,8.0,97,0.15,,,0.26,weatherlink.com 1.10,2013-08-02 13:49:00,
2013-08-02 10:04:00,69.0,68.0,29.79,SSE,165,4.0,10.0,97,0.05,,,0.26,weatherlink.com 1.10,2013-08-02 14:04:00,
2013-08-02 10:19:00,69.4,68.0,29.79,SW,215,3.0,8.0,96,0.04,,,0.26,weatherlink.com 1.10,2013-08-02 14:19:00,
2013-08-02 10:34:00,69.4,68.0,29.79,SW,217,2.0,4.0,96,0.00,,,0.26,weatherlink.com 1.10,2013-08-02 14:34:00,
2013-08-02 10:49:00,69.7,69.0,29.79,SW,224,1.0,3.0,96,0.00,,,0.26,weatherlink.com 1.10,2013-08-02 14:49:00,
2013-08-02 11:04:00,70.2,69.0,29.79,NW,325,1.0,1.0,96,0.00,,,0.26,weatherlink.com 1.10,2013-08-02 15:04:00,
2013-08-02 11:19:00,71.0,70.0,29.79,SSW,193,2.0,4.0,96,0.00,,,0.26,weatherlink.com 1.10,2013-08-02 15:19:00,
2013-08-02 11:34:00,72.6,71.0,29.79,WNW,283,3.0,5.0,96,0.00,,,0.26,weatherlink.com 1.10,2013-08-02 15:34:00,
2013-08-02 11:49:00,73.1,71.0,29.79,WSW,246,4.0,6.0,94,0.00,,,0.26,weatherlink.com 1.10,2013-08-02 15:49:00,
2013-08-02 12:04:00,74.0,72.0,29.79,NW,305,3.0,5.0,94,0.00,,,0.26,weatherlink.com 1.10,2013-08-02 16:04:00,
2013-08-02 12:19:00,75.0,73.0,29.79,SSW,210,3.0,6.0,93,0.00,,,0.26,weatherlink.com 1.10,2013-08-02 16:19:00,
2013-08-02 12:34:00,75.8,72.0,29.79,SW,224,2.0,5.0,89,0.00,,,0.26,weatherlink.com 1.10,2013-08-02 16:34:00,
2013-08-02 12:49:00,76.8,73.0,29.78,SSW,203,2.0,9.0,89,0.00,,,0.26,weatherlink.com 1.10,2013-08-02 16:49:00,
2013-08-02 13:04:00,76.5,73.0,29.78,SW,228,3.0,9.0,88,0.00,,,0.26,weatherlink.com 1.10,2013-08-02 17:04:00,
2013-08-02 13:19:00,76.8,73.0,29.78,NNW,335,2.0,9.0,87,0.00,,,0.26,weatherlink.com 1.10,2013-08-02 17:19:00,
2013-08-02 13:34:00,77.5,73.0,29.78,West,280,4.0,8.0,85,0.00,,,0.26,weatherlink.com 1.10,2013-08-02 17:34:00,
2013-08-02 13:49:00,78.6,71.0,29.78,West,274,6.0,10.0,78,0.00,,,0.26,weatherlink.com 1.10,2013-08-02 17:49:00,
2013-08-02 14:04:00,78.4,71.0,29.78,WNW,295,4.0,14.0,77,0.00,,,0.26,weatherlink.com 1.10,2013-08-02 18:04:00,
2013-08-02 14:20:00,78.8,70.0,29.78,NW,310,7.0,10.0,74,0.00,,,0.26,weatherlink.com 1.10,2013-08-02 18:20:00,
2013-08-02 14:35:00,79.2,70.0,29.79,West,264,4.0,14.0,73,0.00,,,0.26,weatherlink.com 1.10,2013-08-02 18:35:00,
2013-08-02 14:50:00,79.4,72.0,29.79,North,354,1.0,11.0,78,0.00,,,0.26,weatherlink.com 1.10,2013-08-02 18:50:00,
2013-08-02 15:05:00,78.4,72.0,29.78,South,186,5.0,11.0,80,0.00,,,0.26,weatherlink.com 1.10,2013-08-02 19:05:00,
2013-08-02 15:20:00,78.9,72.0,29.79,WSW,256,4.0,9.0,79,0.00,,,0.26,weatherlink.com 1.10,2013-08-02 19:20:00,
2013-08-02 15:35:00,78.8,72.0,29.79,West,268,6.0,9.0,80,0.00,,,0.26,weatherlink.com 1.10,2013-08-02 19:35:00,
2013-08-02 15:50:00,78.8,71.0,29.79,WNW,295,4.0,10.0,77,0.00,,,0.26,weatherlink.com 1.10,2013-08-02 19:50:00,
2013-08-02 16:05:00,78.2,71.0,29.79,West,267,4.0,11.0,78,0.00,,,0.26,weatherlink.com 1.10,2013-08-02 20:05:00,
2013-08-02 16:20:00,77.7,70.0,29.80,NNE,15,2.0,10.0,78,0.00,,,0.26,weatherlink.com 1.10,2013-08-02 20:20:00,
2013-08-02 16:35:00,77.6,70.0,29.80,WNW,288,7.0,8.0,78,0.00,,,0.26,weatherlink.com 1.10,2013-08-02 20:35:00,
2013-08-02 16:50:00,78.0,70.0,29.79,SW,234,7.0,7.0,77,0.00,,,0.26,weatherlink.com 1.10,2013-08-02 20:50:00,
2013-08-02 17:05:00,77.5,70.0,29.79,NNW,335,3.0,11.0,77,0.00,,,0.26,weatherlink.com 1.10,2013-08-02 21:05:00,
2013-08-02 17:20:00,76.4,69.0,29.80,SSW,209,8.0,13.0,78,0.00,,,0.00,weatherlink.com 1.10,2013-08-02 21:20:00,
2013-08-02 17:35:00,75.9,69.0,29.80,WNW,288,3.0,10.0,80,0.00,,,0.00,weatherlink.com 1.10,2013-08-02 21:35:00,
2013-08-02 17:50:00,75.3,69.0,29.81,WNW,287,2.0,14.0,80,0.00,,,0.00,weatherlink.com 1.10,2013-08-02 21:50:00,
2013-08-02 18:05:00,74.8,68.0,29.81,WSW,243,12.0,12.0,80,0.00,,,0.00,weatherlink.com 1.10,2013-08-02 22:05:00,
2013-08-02 18:20:00,74.6,68.0,29.81,WNW,285,4.0,11.0,81,0.00,,,0.00,weatherlink.com 1.10,2013-08-02 22:20:00,
2013-08-02 18:35:00,74.6,69.0,29.82,SSE,162,4.0,10.0,82,0.00,,,0.00,weatherlink.com 1.10,2013-08-02 22:35:00,
2013-08-02 18:50:00,74.0,69.0,29.82,NW,323,2.0,11.0,83,0.00,,,0.00,weatherlink.com 1.10,2013-08-02 22:50:00,
2013-08-02 19:05:00,73.7,69.0,29.82,SSW,212,8.0,12.0,84,0.00,,,0.00,weatherlink.com 1.10,2013-08-02 23:05:00,
2013-08-02 19:20:00,72.8,68.0,29.82,North,351,4.0,10.0,86,0.00,,,0.00,weatherlink.com 1.10,2013-08-02 23:20:00,
2013-08-02 19:35:00,71.8,68.0,29.83,SE,124,0.0,8.0,88,0.00,,,0.00,weatherlink.com 1.10,2013-08-02 23:35:00,
2013-08-02 19:50:00,71.4,68.0,29.83,East,79,1.0,7.0,89,0.00,,,0.00,weatherlink.com 1.10,2013-08-02 23:50:00,
2013-08-02 20:05:00,71.2,68.0,29.83,West,281,4.0,8.0,89,0.00,,,0.00,weatherlink.com 1.10,2013-08-03 00:05:00,
2013-08-02 20:20:00,71.1,68.0,29.83,West,274,0.0,8.0,89,0.00,,,0.00,weatherlink.com 1.10,2013-08-03 00:20:00,
2013-08-02 20:35:00,70.9,68.0,29.84,SW,226,4.0,7.0,89,0.00,,,0.00,weatherlink.com 1.10,2013-08-03 00:35:00,
2013-08-02 20:50:00,70.9,68.0,29.84,SSW,204,1.0,10.0,90,0.00,,,0.00,weatherlink.com 1.10,2013-08-03 00:50:00,
2013-08-02 21:05:00,71.0,68.0,29.85,NE,49,1.0,5.0,91,0.00,,,0.00,weatherlink.com 1.10,2013-08-03 01:05:00,
2013-08-02 21:20:00,70.9,69.0,29.85,West,281,5.0,8.0,92,0.00,,,0.00,weatherlink.com 1.10,2013-08-03 01:20:00,
2013-08-02 21:35:00,70.8,68.0,29.86,South,188,2.0,5.0,92,0.00,,,0.00,weatherlink.com 1.10,2013-08-03 01:35:00,
2013-08-02 21:50:00,70.6,69.0,29.86,NW,314,1.0,8.0,93,0.00,,,0.00,weatherlink.com 1.10,2013-08-03 01:50:00,
2013-08-02 22:05:00,70.5,68.0,29.86,SSE,151,1.0,4.0,93,0.00,,,0.00,weatherlink.com 1.10,2013-08-03 02:05:00,
2013-08-02 22:20:00,70.5,69.0,29.87,ENE,63,0.0,6.0,94,0.00,,,0.00,weatherlink.com 1.10,2013-08-03 02:20:00,
2013-08-02 22:35:00,70.4,69.0,29.87,SW,214,1.0,3.0,94,0.00,,,0.00,weatherlink.com 1.10,2013-08-03 02:35:00,
2013-08-02 22:51:00,70.4,69.0,29.87,SW,215,0.0,5.0,94,0.00,,,0.00,weatherlink.com 1.10,2013-08-03 02:51:00,
2013-08-02 23:05:00,70.4,69.0,29.87,ENE,62,2.0,4.0,94,0.00,,,0.00,weatherlink.com 1.10,2013-08-03 03:05:00,
2013-08-02 23:21:00,70.4,69.0,29.86,South,173,0.0,6.0,94,0.00,,,0.00,weatherlink.com 1.10,2013-08-03 03:21:00,
2013-08-02 23:36:00,70.2,69.0,29.86,ESE,121,1.0,5.0,94,0.00,,,0.00,weatherlink.com 1.10,2013-08-03 03:36:00,
2013-08-02 23:51:00,70.3,69.0,29.86,ESE,106,0.0,8.0,94,0.00,,,0.00,weatherlink.com 1.10,2013-08-03 03:51:00,